Time;durP1;ratioP1;P1;durP2;ratioP2;P2;SDS_P1;SDS_P2;PMS_P1;PMS_P2;Temp;Humidity;BMP_temperature;BMP_pressure;BME280_temperature;BME280_humidity;BME280_pressure;Samples;Min_cycle;Max_cycle;Signal;HPM_P1;HPM_P2
2023/08/25 00:00:09;;;;;;;5.80;4.00;;;;;;;;;;587111;23;1217;-80
2023/08/25 00:00:25;;;;;;;5.47;3.75;;;;;;;;;;590943;23;1150;-79
2023/08/25 00:00:40;;;;;;;5.13;3.80;;;;;;;;;;590126;23;1059;-79
2023/08/25 00:00:57;;;;;;;6.40;3.80;;;;;;;;;;590414;23;2078;-79
2023/08/25 00:01:12;;;;;;;7.07;3.70;;;;;;;;;;591143;23;1143;-80
2023/08/25 00:01:27;;;;;;;6.78;3.88;;;;;;;;;;593664;23;1375;-79
2023/08/25 00:01:43;;;;;;;7.17;3.87;;;;;;;;;;590119;23;1115;-79
2023/08/25 00:01:58;;;;;;;7.10;3.90;;;;;;;;;;587117;23;1065;-80
2023/08/25 00:02:15;;;;;;;6.20;3.90;;;;;;;;;;590641;23;984;-79
2023/08/25 00:02:31;;;;;;;5.43;3.85;;;;;;;;;;588208;23;1190;-79
2023/08/25 00:02:47;;;;;;;6.35;3.90;;;;;;;;;;587962;23;1004;-80
2023/08/25 00:03:03;;;;;;;6.90;3.80;;;;;;;;;;590943;23;1067;-79
2023/08/25 00:03:19;;;;;;;5.95;3.78;;;;;;;;;;591407;23;1378;-79
2023/08/25 00:03:34;;;;;;;6.60;3.70;;;;;;;;;;590756;23;1120;-80
2023/08/25 00:03:49;;;;;;;6.63;3.70;;;;;;;;;;593361;23;1116;-80
2023/08/25 00:04:05;;;;;;;4.78;3.67;;;;;;;;;;593811;23;1209;-80
2023/08/25 00:04:20;;;;;;;5.27;3.70;;;;;;;;;;590987;23;982;-80
2023/08/25 00:04:36;;;;;;;7.68;3.85;;;;;;;;;;589383;23;1145;-80
2023/08/25 00:04:51;;;;;;;7.07;3.80;;;;;;;;;;589445;23;1039;-80
2023/08/25 00:05:07;;;;;;;5.93;3.65;;;;;;;;;;588911;23;1222;-80
2023/08/25 00:05:22;;;;;;;6.67;4.03;;;;;;;;;;586431;23;1008;-79
2023/08/25 00:05:39;;;;;;;7.38;4.05;;;;;;;;;;584926;23;1151;-80
2023/08/25 00:05:54;;;;;;;6.57;3.83;;;;;;;;;;581964;23;1154;-80
2023/08/25 00:06:10;;;;;;;6.90;3.97;;;;;;;;;;580221;24;1036;-80
2023/08/25 00:06:25;;;;;;;6.10;3.67;;;;;;;;;;584311;23;1093;-80
2023/08/25 00:06:41;;;;;;;4.30;3.47;;;;;;;;;;584547;23;980;-80
2023/08/25 00:06:56;;;;;;;5.33;3.60;;;;;;;;;;584423;23;1076;-80
2023/08/25 00:07:12;;;;;;;5.15;3.40;;;;;;;;;;590182;23;1156;-79
2023/08/25 00:07:27;;;;;;;4.73;3.40;;;;;;;;;;586641;23;1225;-80
2023/08/25 00:07:43;;;;;;;4.75;3.40;;;;;;;;;;587629;23;1099;-81
2023/08/25 00:07:58;;;;;;;4.00;3.23;;;;;;;;;;584762;23;1073;-80
2023/08/25 00:08:14;;;;;;;4.32;3.33;;;;;;;;;;586379;23;1116;-80
2023/08/25 00:08:29;;;;;;;4.27;3.40;;;;;;;;;;585377;23;1107;-80
2023/08/25 00:08:46;;;;;;;3.80;3.20;;;;;;;;;;588537;23;988;-80
2023/08/25 00:09:01;;;;;;;4.25;3.13;;;;;;;;;;585017;23;1022;-80
2023/08/25 00:09:16;;;;;;;4.87;3.33;;;;;;;;;;585718;23;1129;-80
2023/08/25 00:09:32;;;;;;;5.75;3.72;;;;;;;;;;584909;23;1117;-80
2023/08/25 00:09:48;;;;;;;5.60;3.80;;;;;;;;;;588808;23;958;-80
2023/08/25 00:10:04;;;;;;;5.18;3.70;;;;;;;;;;591059;23;1213;-79
2023/08/25 00:10:19;;;;;;;5.20;3.70;;;;;;;;;;588034;23;1077;-79
2023/08/25 00:10:35;;;;;;;6.97;3.63;;;;;;;;;;584506;23;1080;-79
2023/08/25 00:10:50;;;;;;;6.60;3.50;;;;;;;;;;587812;23;1073;-80
2023/08/25 00:11:06;;;;;;;4.82;3.60;;;;;;;;;;586410;23;1004;-80
2023/08/25 00:11:21;;;;;;;5.07;3.80;;;;;;;;;;588128;23;973;-80
2023/08/25 00:11:38;;;;;;;8.60;3.90;;;;;;;;;;587114;23;1127;-80
2023/08/25 00:11:53;;;;;;;8.00;3.70;;;;;;;;;;588144;23;1192;-80
2023/08/25 00:12:09;;;;;;;7.43;3.83;;;;;;;;;;587389;23;1115;-80
2023/08/25 00:12:24;;;;;;;7.63;3.80;;;;;;;;;;588534;23;1097;-79
2023/08/25 00:12:41;;;;;;;6.60;3.70;;;;;;;;;;587441;23;1083;-80
2023/08/25 00:12:56;;;;;;;7.43;3.80;;;;;;;;;;584650;23;1192;-80
2023/08/25 00:13:12;;;;;;;5.75;3.80;;;;;;;;;;585493;23;1100;-79
2023/08/25 00:13:28;;;;;;;5.47;3.70;;;;;;;;;;589074;23;1258;-80
2023/08/25 00:13:43;;;;;;;6.15;3.60;;;;;;;;;;591754;23;1284;-80
2023/08/25 00:13:58;;;;;;;7.97;4.00;;;;;;;;;;589396;23;1098;-80
2023/08/25 00:14:14;;;;;;;6.97;3.92;;;;;;;;;;595279;23;1028;-80
2023/08/25 00:14:30;;;;;;;6.30;3.40;;;;;;;;;;593641;23;1040;-79
2023/08/25 00:14:45;;;;;;;8.17;3.50;;;;;;;;;;589651;23;1174;-80
2023/08/25 00:15:01;;;;;;;9.13;3.80;;;;;;;;;;587167;23;1114;-80
2023/08/25 00:15:16;;;;;;;7.00;3.90;;;;;;;;;;588973;23;1032;-79
2023/08/25 00:15:32;;;;;;;7.63;3.90;;;;;;;;;;587448;23;1036;-78
2023/08/25 00:15:49;;;;;;;7.85;3.80;;;;;;;;;;586760;23;1071;-79
2023/08/25 00:16:04;;;;;;;4.68;3.70;;;;;;;;;;586231;23;1285;-79
2023/08/25 00:16:20;;;;;;;5.15;3.70;;;;;;;;;;587883;23;955;-79
2023/08/25 00:16:35;;;;;;;7.80;4.00;;;;;;;;;;587153;23;1057;-80
2023/08/25 00:16:51;;;;;;;7.80;4.20;;;;;;;;;;584060;23;1083;-80
2023/08/25 00:17:08;;;;;;;7.07;4.10;;;;;;;;;;587876;23;1244;-79
2023/08/25 00:17:44;;;;;;;6.90;3.88;;;;;;;;;;586994;23;1240;-80
2023/08/25 00:18:00;;;;;;;7.18;3.88;;;;;;;;;;587754;23;1259;-79
2023/08/25 00:18:16;;;;;;;7.07;4.00;;;;;;;;;;592801;23;1019;-80
2023/08/25 00:18:32;;;;;;;5.88;3.85;;;;;;;;;;589504;23;1146;-79
2023/08/25 00:18:48;;;;;;;5.53;3.80;;;;;;;;;;587979;23;1250;-80
2023/08/25 00:19:03;;;;;;;4.78;3.60;;;;;;;;;;585097;23;988;-80
2023/08/25 00:19:20;;;;;;;5.07;3.65;;;;;;;;;;586749;23;1125;-79
2023/08/25 00:19:35;;;;;;;7.22;3.90;;;;;;;;;;587277;23;1015;-80
2023/08/25 00:20:12;;;;;;;6.90;4.00;;;;;;;;;;582013;23;971;-80
2023/08/25 00:20:48;;;;;;;7.82;4.00;;;;;;;;;;585345;23;980;-80
2023/08/25 00:21:04;;;;;;;7.75;4.00;;;;;;;;;;583421;23;1929;-79
2023/08/25 00:21:19;;;;;;;6.38;4.00;;;;;;;;;;588491;23;1154;-81
2023/08/25 00:21:35;;;;;;;5.87;3.97;;;;;;;;;;584271;23;1024;-80
2023/08/25 00:21:50;;;;;;;5.32;4.05;;;;;;;;;;587380;23;1147;-80
2023/08/25 00:22:06;;;;;;;7.07;4.30;;;;;;;;;;586526;23;1075;-80
2023/08/25 00:22:21;;;;;;;7.68;4.40;;;;;;;;;;585483;23;955;-80
2023/08/25 00:22:37;;;;;;;6.43;4.20;;;;;;;;;;585059;23;1099;-79
2023/08/25 00:22:52;;;;;;;6.88;4.20;;;;;;;;;;586005;23;1088;-80
2023/08/25 00:23:08;;;;;;;6.07;4.17;;;;;;;;;;588011;23;1195;-81
2023/08/25 00:23:24;;;;;;;6.88;4.28;;;;;;;;;;585194;23;1218;-80
2023/08/25 00:23:39;;;;;;;7.25;4.20;;;;;;;;;;584155;23;1115;-80
2023/08/25 00:23:55;;;;;;;7.23;4.27;;;;;;;;;;584340;23;1095;-80
2023/08/25 00:24:10;;;;;;;7.90;4.20;;;;;;;;;;584979;23;1011;-79
2023/08/25 00:24:26;;;;;;;6.25;4.00;;;;;;;;;;591702;23;1094;-80
2023/08/25 00:24:41;;;;;;;6.13;3.83;;;;;;;;;;587879;23;1186;-79
2023/08/25 00:24:57;;;;;;;6.78;3.60;;;;;;;;;;587583;23;1115;-79
2023/08/25 00:25:12;;;;;;;6.45;3.58;;;;;;;;;;587883;23;1134;-78
2023/08/25 00:25:29;;;;;;;7.83;3.73;;;;;;;;;;581650;23;1090;-80
2023/08/25 00:25:45;;;;;;;8.43;3.88;;;;;;;;;;580112;23;1003;-80
2023/08/25 00:26:00;;;;;;;7.45;3.92;;;;;;;;;;578976;23;1015;-79
2023/08/25 00:26:16;;;;;;;7.20;4.00;;;;;;;;;;583457;23;1154;-80
2023/08/25 00:26:32;;;;;;;6.68;3.97;;;;;;;;;;581332;23;1007;-80
2023/08/25 00:26:47;;;;;;;5.70;3.92;;;;;;;;;;584251;23;1020;-80
2023/08/25 00:27:03;;;;;;;4.87;3.93;;;;;;;;;;587195;23;988;-79
2023/08/25 00:27:19;;;;;;;5.00;3.93;;;;;;;;;;589728;23;1071;-80
2023/08/25 00:27:34;;;;;;;5.25;4.00;;;;;;;;;;589199;23;1197;-79
2023/08/25 00:27:50;;;;;;;6.97;4.10;;;;;;;;;;588025;23;1201;-80
2023/08/25 00:28:05;;;;;;;7.53;3.92;;;;;;;;;;587035;23;1023;-80
2023/08/25 00:28:21;;;;;;;7.20;3.90;;;;;;;;;;587743;23;1231;-80
2023/08/25 00:28:36;;;;;;;8.13;4.05;;;;;;;;;;583592;23;1087;-80
2023/08/25 00:28:52;;;;;;;8.03;4.10;;;;;;;;;;584750;23;1102;-80
2023/08/25 00:29:07;;;;;;;6.63;3.90;;;;;;;;;;588227;23;1254;-80
2023/08/25 00:29:23;;;;;;;5.53;3.70;;;;;;;;;;591804;23;1333;-80
2023/08/25 00:29:38;;;;;;;5.37;3.80;;;;;;;;;;591387;23;1075;-79
2023/08/25 00:29:53;;;;;;;5.05;3.85;;;;;;;;;;592588;23;1257;-80
2023/08/25 00:30:10;;;;;;;4.47;3.80;;;;;;;;;;590948;23;1182;-80
2023/08/25 00:30:26;;;;;;;5.72;3.95;;;;;;;;;;591346;23;1243;-80
2023/08/25 00:30:42;;;;;;;5.45;3.92;;;;;;;;;;590615;23;1048;-79
2023/08/25 00:30:57;;;;;;;6.00;3.90;;;;;;;;;;593005;23;1217;-79
2023/08/25 00:31:13;;;;;;;6.10;4.03;;;;;;;;;;590647;23;1098;-80
2023/08/25 00:31:29;;;;;;;5.23;4.03;;;;;;;;;;593655;23;1083;-79
2023/08/25 00:31:44;;;;;;;7.63;3.97;;;;;;;;;;592738;23;1024;-80
2023/08/25 00:32:00;;;;;;;6.72;3.97;;;;;;;;;;598916;23;1167;-79
2023/08/25 00:32:15;;;;;;;5.47;4.10;;;;;;;;;;597939;23;1015;-79
2023/08/25 00:32:30;;;;;;;7.72;4.00;;;;;;;;;;594755;23;1299;-80
2023/08/25 00:32:46;;;;;;;7.60;4.00;;;;;;;;;;593008;23;1190;-80
2023/08/25 00:33:01;;;;;;;6.95;4.10;;;;;;;;;;595891;23;1007;-78
2023/08/25 00:33:17;;;;;;;6.67;3.90;;;;;;;;;;595961;23;1283;-79
2023/08/25 00:33:33;;;;;;;5.28;3.63;;;;;;;;;;590504;23;1126;-79
2023/08/25 00:33:50;;;;;;;7.83;3.97;;;;;;;;;;590298;23;1260;-80
2023/08/25 00:34:06;;;;;;;8.93;4.30;;;;;;;;;;590837;23;1152;-80
2023/08/25 00:34:21;;;;;;;6.67;4.10;;;;;;;;;;588630;23;1039;-80
2023/08/25 00:34:37;;;;;;;5.60;4.10;;;;;;;;;;585900;23;1215;-79
2023/08/25 00:34:53;;;;;;;5.80;4.20;;;;;;;;;;584624;23;1169;-79
2023/08/25 00:35:08;;;;;;;5.13;3.90;;;;;;;;;;586307;23;1035;-80
2023/08/25 00:35:24;;;;;;;6.47;3.90;;;;;;;;;;582616;23;1319;-80
2023/08/25 00:35:43;;;;;;;8.15;4.10;;;;;;;;;;584345;23;1101;-80
2023/08/25 00:36:18;;;;;;;7.07;4.10;;;;;;;;;;590524;23;1022;-80
2023/08/25 00:36:34;;;;;;;6.32;4.13;;;;;;;;;;586244;23;1180;-80
2023/08/25 00:36:53;;;;;;;6.32;4.18;;;;;;;;;;584115;23;1236;-80
2023/08/25 00:37:08;;;;;;;4.82;4.00;;;;;;;;;;591672;23;1056;-80
2023/08/25 00:37:24;;;;;;;5.72;4.05;;;;;;;;;;591677;23;1129;-80
2023/08/25 00:37:39;;;;;;;6.53;4.00;;;;;;;;;;588567;23;1161;-80
2023/08/25 00:37:55;;;;;;;7.28;3.88;;;;;;;;;;582110;23;1094;-80
2023/08/25 00:38:11;;;;;;;7.87;3.90;;;;;;;;;;582815;23;1199;-80
2023/08/25 00:38:28;;;;;;;7.53;3.85;;;;;;;;;;584873;23;1135;-80
2023/08/25 00:38:43;;;;;;;5.97;3.72;;;;;;;;;;582378;23;1175;-80
2023/08/25 00:39:19;;;;;;;5.70;3.88;;;;;;;;;;583981;23;1142;-79
2023/08/25 00:39:35;;;;;;;5.97;3.90;;;;;;;;;;581871;23;1168;-80
2023/08/25 00:40:11;;;;;;;6.27;3.90;;;;;;;;;;585404;23;1124;-79
2023/08/25 00:40:27;;;;;;;6.90;3.80;;;;;;;;;;587776;23;1237;-81
2023/08/25 00:40:42;;;;;;;7.38;3.88;;;;;;;;;;589926;23;976;-80
2023/08/25 00:40:58;;;;;;;7.88;3.97;;;;;;;;;;588833;23;1939;-79
2023/08/25 00:41:13;;;;;;;7.67;4.00;;;;;;;;;;588378;23;1130;-80
2023/08/25 00:41:29;;;;;;;8.00;4.00;;;;;;;;;;581359;23;1213;-80
2023/08/25 00:42:05;;;;;;;7.53;4.00;;;;;;;;;;587323;23;1063;-79
2023/08/25 00:42:20;;;;;;;5.70;4.07;;;;;;;;;;591639;23;1297;-80
2023/08/25 00:42:36;;;;;;;5.78;4.28;;;;;;;;;;591538;23;1026;-80
2023/08/25 00:42:52;;;;;;;5.63;4.05;;;;;;;;;;590087;23;1127;-80
2023/08/25 00:43:07;;;;;;;5.30;3.90;;;;;;;;;;590800;23;1177;-80
2023/08/25 00:43:23;;;;;;;6.22;3.88;;;;;;;;;;585614;23;1292;-80
2023/08/25 00:43:39;;;;;;;6.60;3.80;;;;;;;;;;582576;23;1313;-80
2023/08/25 00:43:55;;;;;;;6.03;3.72;;;;;;;;;;584449;23;1210;-79
2023/08/25 00:44:11;;;;;;;6.50;3.77;;;;;;;;;;585158;23;1067;-80
2023/08/25 00:44:27;;;;;;;6.10;3.88;;;;;;;;;;588732;23;1081;-80
2023/08/25 00:44:42;;;;;;;6.40;4.10;;;;;;;;;;587068;23;773;-79
2023/08/25 00:44:58;;;;;;;6.93;4.07;;;;;;;;;;581693;23;1063;-80
2023/08/25 00:45:13;;;;;;;6.55;3.80;;;;;;;;;;587411;23;1148;-78
2023/08/25 00:45:34;;;;;;;5.97;3.50;;;;;;;;;;590534;23;1167;-80
2023/08/25 00:45:50;;;;;;;5.25;3.80;;;;;;;;;;587815;23;1089;-80
2023/08/25 00:46:06;;;;;;;5.20;3.90;;;;;;;;;;586833;23;1209;-81
2023/08/25 00:46:22;;;;;;;7.85;4.05;;;;;;;;;;585760;23;1117;-80
2023/08/25 00:46:38;;;;;;;9.07;4.25;;;;;;;;;;584731;23;1214;-80
2023/08/25 00:46:55;;;;;;;6.80;4.00;;;;;;;;;;584323;23;1043;-80
2023/08/25 00:47:31;;;;;;;5.20;3.65;;;;;;;;;;581646;23;1153;-80
2023/08/25 00:47:46;;;;;;;4.82;3.22;;;;;;;;;;584363;23;1397;-80
2023/08/25 00:48:02;;;;;;;6.10;3.20;;;;;;;;;;587053;23;1110;-79
2023/08/25 00:48:38;;;;;;;6.28;3.30;;;;;;;;;;588400;23;1097;-80
2023/08/25 00:48:54;;;;;;;5.07;3.40;;;;;;;;;;584275;23;1182;-80
2023/08/25 00:49:09;;;;;;;5.43;3.40;;;;;;;;;;587581;23;1131;-80
2023/08/25 00:49:26;;;;;;;4.43;3.10;;;;;;;;;;588671;23;1132;-80
2023/08/25 00:49:42;;;;;;;5.30;3.25;;;;;;;;;;584880;23;1245;-80
2023/08/25 00:49:58;;;;;;;5.75;3.53;;;;;;;;;;581846;23;1134;-80
2023/08/25 00:50:14;;;;;;;5.40;3.60;;;;;;;;;;587537;23;1355;-80
2023/08/25 00:50:33;;;;;;;5.80;3.70;;;;;;;;;;583713;23;1007;-79
2023/08/25 00:50:49;;;;;;;6.30;3.80;;;;;;;;;;584423;23;1096;-80
2023/08/25 00:51:06;;;;;;;7.03;3.70;;;;;;;;;;587696;23;1135;-81
2023/08/25 00:51:21;;;;;;;5.60;3.40;;;;;;;;;;588091;23;1138;-80
2023/08/25 00:51:37;;;;;;;5.60;3.37;;;;;;;;;;587682;23;1240;-80
2023/08/25 00:51:53;;;;;;;5.97;3.60;;;;;;;;;;581863;23;1260;-80
2023/08/25 00:52:10;;;;;;;7.35;3.80;;;;;;;;;;585712;23;1119;-80
2023/08/25 00:52:26;;;;;;;7.07;3.90;;;;;;;;;;586466;23;1165;-80
2023/08/25 00:52:42;;;;;;;5.97;3.90;;;;;;;;;;586007;23;1122;-80
2023/08/25 00:52:58;;;;;;;6.43;3.80;;;;;;;;;;590272;23;1066;-80
2023/08/25 00:53:14;;;;;;;6.55;4.00;;;;;;;;;;591335;23;1071;-80
2023/08/25 00:53:32;;;;;;;6.75;3.95;;;;;;;;;;593033;23;1272;-80
2023/08/25 00:53:48;;;;;;;5.13;3.78;;;;;;;;;;593286;23;1043;-79
2023/08/25 00:54:05;;;;;;;4.20;3.80;;;;;;;;;;592055;23;1145;-80
2023/08/25 00:54:23;;;;;;;4.35;3.72;;;;;;;;;;593409;23;1327;-80
2023/08/25 00:54:39;;;;;;;4.13;3.28;;;;;;;;;;590395;23;1235;-79
2023/08/25 00:54:56;;;;;;;3.35;3.05;;;;;;;;;;590275;23;1162;-79
2023/08/25 00:55:12;;;;;;;3.75;3.13;;;;;;;;;;590369;23;1058;-79
2023/08/25 00:55:28;;;;;;;3.88;3.08;;;;;;;;;;590712;23;928;-80
2023/08/25 00:55:43;;;;;;;4.13;3.00;;;;;;;;;;590285;23;1142;-80
2023/08/25 00:56:00;;;;;;;4.30;3.20;;;;;;;;;;590059;23;1065;-79
2023/08/25 00:56:17;;;;;;;4.40;3.30;;;;;;;;;;585242;23;1163;-80
2023/08/25 00:56:34;;;;;;;4.55;3.40;;;;;;;;;;583435;23;1017;-80
2023/08/25 00:56:50;;;;;;;5.18;3.30;;;;;;;;;;581545;23;1168;-80
2023/08/25 00:57:06;;;;;;;5.88;3.22;;;;;;;;;;586829;23;1150;-80
2023/08/25 00:57:22;;;;;;;4.83;3.30;;;;;;;;;;587941;23;1142;-80
2023/08/25 00:57:37;;;;;;;5.50;3.60;;;;;;;;;;587090;23;1037;-79
2023/08/25 00:57:53;;;;;;;5.43;3.70;;;;;;;;;;587873;23;1102;-79
2023/08/25 00:58:10;;;;;;;5.10;3.80;;;;;;;;;;586657;23;1068;-80
2023/08/25 00:58:45;;;;;;;6.10;3.70;;;;;;;;;;586170;23;1060;-80
2023/08/25 00:59:21;;;;;;;4.25;3.08;;;;;;;;;;583384;23;1507;-79
2023/08/25 00:59:37;;;;;;;5.38;3.22;;;;;;;;;;590549;23;1576;-80
2023/08/25 00:59:52;;;;;;;6.18;3.65;;;;;;;;;;593796;23;1249;-79
2023/08/25 01:00:11;;;;;;;5.97;4.07;;;;;;;;;;595713;23;1113;-80
2023/08/25 01:00:26;;;;;;;6.83;4.10;;;;;;;;;;596292;23;1130;-78
2023/08/25 01:00:44;;;;;;;6.83;4.00;;;;;;;;;;596722;23;1248;-79
2023/08/25 01:01:03;;;;;;;6.65;4.00;;;;;;;;;;594146;23;1926;-79
2023/08/25 01:01:40;;;;;;;6.38;4.30;;;;;;;;;;594481;23;1133;-80
2023/08/25 01:02:16;;;;;;;8.30;4.57;;;;;;;;;;591268;23;1162;-79
2023/08/25 01:02:32;;;;;;;7.78;4.32;;;;;;;;;;588595;23;1139;-80
2023/08/25 01:03:08;;;;;;;6.95;4.15;;;;;;;;;;588581;23;1125;-80
2023/08/25 01:03:23;;;;;;;6.75;3.95;;;;;;;;;;593853;23;1513;-79
2023/08/25 01:03:40;;;;;;;6.67;4.20;;;;;;;;;;590711;23;1094;-80
2023/08/25 01:03:56;;;;;;;6.63;4.32;;;;;;;;;;587195;23;1050;-80
2023/08/25 01:04:12;;;;;;;5.38;4.22;;;;;;;;;;587955;23;1074;-81
2023/08/25 01:04:28;;;;;;;7.07;4.40;;;;;;;;;;584087;23;1328;-80
2023/08/25 01:04:43;;;;;;;8.57;4.70;;;;;;;;;;581768;23;1007;-79
2023/08/25 01:04:59;;;;;;;7.15;4.57;;;;;;;;;;581904;23;1145;-80
2023/08/25 01:05:16;;;;;;;6.17;4.40;;;;;;;;;;584731;23;754;-80
2023/08/25 01:05:32;;;;;;;6.65;4.20;;;;;;;;;;584279;23;1120;-79
2023/08/25 01:05:48;;;;;;;4.77;4.10;;;;;;;;;;586800;23;948;-80
2023/08/25 01:06:04;;;;;;;5.03;4.10;;;;;;;;;;588871;23;1005;-80
2023/08/25 01:06:19;;;;;;;5.32;4.10;;;;;;;;;;589183;23;1200;-80
2023/08/25 01:06:35;;;;;;;6.77;4.33;;;;;;;;;;587767;23;1117;-79
2023/08/25 01:06:50;;;;;;;8.52;4.40;;;;;;;;;;584502;23;1107;-80
2023/08/25 01:07:06;;;;;;;7.77;4.50;;;;;;;;;;583371;23;1008;-80
2023/08/25 01:07:22;;;;;;;6.90;4.47;;;;;;;;;;584889;23;1072;-80
2023/08/25 01:07:37;;;;;;;6.13;4.30;;;;;;;;;;587469;23;1076;-80
2023/08/25 01:07:52;;;;;;;5.35;4.38;;;;;;;;;;590477;23;1193;-80
2023/08/25 01:08:08;;;;;;;5.43;4.30;;;;;;;;;;588518;23;1142;-80
2023/08/25 01:08:24;;;;;;;6.50;4.40;;;;;;;;;;589779;23;844;-80
2023/08/25 01:08:40;;;;;;;7.97;4.60;;;;;;;;;;590351;23;1122;-81
2023/08/25 01:08:55;;;;;;;7.93;4.87;;;;;;;;;;593045;23;1009;-80
2023/08/25 01:09:11;;;;;;;7.18;4.90;;;;;;;;;;587686;23;1183;-80
2023/08/25 01:09:27;;;;;;;6.50;4.67;;;;;;;;;;591298;23;1089;-81
2023/08/25 01:09:43;;;;;;;6.53;4.60;;;;;;;;;;590266;23;1168;-80
2023/08/25 01:09:59;;;;;;;7.55;4.88;;;;;;;;;;593825;23;1243;-80
2023/08/25 01:10:15;;;;;;;7.20;4.93;;;;;;;;;;598164;23;1089;-80
2023/08/25 01:10:50;;;;;;;6.93;4.90;;;;;;;;;;595012;23;1077;-80
2023/08/25 01:11:26;;;;;;;8.98;5.22;;;;;;;;;;590920;23;1240;-80
2023/08/25 01:11:48;;;;;;;6.70;4.50;;;;;;;;;;596377;23;867;-80
2023/08/25 01:12:19;;;;;;;5.15;4.32;;;;;;;;;;591220;23;1040;-79
2023/08/25 01:12:41;;;;;;;6.47;4.68;;;;;;;;;;590570;23;1109;-79
2023/08/25 01:13:09;;;;;;;6.55;4.45;;;;;;;;;;589916;23;1110;-80
2023/08/25 01:13:48;;;;;;;5.45;4.55;;;;;;;;;;591747;23;1154;-80
2023/08/25 01:14:06;;;;;;;6.80;4.65;;;;;;;;;;587882;23;1055;-80
2023/08/25 01:14:36;;;;;;;5.80;4.50;;;;;;;;;;587219;23;1102;-79
2023/08/25 01:15:07;;;;;;;6.93;4.30;;;;;;;;;;589762;23;1036;-81
2023/08/25 01:15:31;;;;;;;6.07;4.60;;;;;;;;;;591457;23;1136;-80
2023/08/25 01:16:09;;;;;;;6.75;4.65;;;;;;;;;;589911;23;1017;-80
2023/08/25 01:16:35;;;;;;;6.85;4.40;;;;;;;;;;596993;23;1050;-80
2023/08/25 01:17:13;;;;;;;6.28;4.30;;;;;;;;;;593932;23;1177;-80
2023/08/25 01:17:41;;;;;;;6.80;4.28;;;;;;;;;;584752;23;1130;-79
2023/08/25 01:18:25;;;;;;;6.28;4.45;;;;;;;;;;589266;23;1170;-80
2023/08/25 01:18:42;;;;;;;6.72;4.25;;;;;;;;;;581784;23;1135;-80
2023/08/25 01:19:00;;;;;;;6.82;4.20;;;;;;;;;;588531;23;1110;-79
2023/08/25 01:19:44;;;;;;;4.82;4.18;;;;;;;;;;588946;23;1209;-80
2023/08/25 01:20:06;;;;;;;6.32;4.30;;;;;;;;;;586960;23;1477;-79
2023/08/25 01:20:22;;;;;;;7.00;4.60;;;;;;;;;;584860;23;1170;-80
2023/08/25 01:20:39;;;;;;;6.80;4.60;;;;;;;;;;583646;23;1146;-79
2023/08/25 01:20:55;;;;;;;7.30;4.60;;;;;;;;;;588284;23;1146;-80
2023/08/25 01:21:12;;;;;;;8.50;4.70;;;;;;;;;;588672;23;1034;-80
2023/08/25 01:21:28;;;;;;;7.13;4.70;;;;;;;;;;587828;23;1262;-79
2023/08/25 01:21:51;;;;;;;6.20;4.40;;;;;;;;;;587862;23;988;-81
2023/08/25 01:22:14;;;;;;;6.47;4.45;;;;;;;;;;587694;23;1182;-79
2023/08/25 01:22:48;;;;;;;5.90;4.32;;;;;;;;;;587209;23;1186;-79
2023/08/25 01:23:27;;;;;;;5.57;4.20;;;;;;;;;;591709;23;1016;-79
2023/08/25 01:23:58;;;;;;;5.15;4.30;;;;;;;;;;593310;23;1030;-80
2023/08/25 01:24:21;;;;;;;6.60;4.25;;;;;;;;;;594040;23;1158;-80
2023/08/25 01:24:40;;;;;;;5.65;3.92;;;;;;;;;;589834;23;1019;-80
2023/08/25 01:25:19;;;;;;;4.85;3.83;;;;;;;;;;590400;23;1204;-80
2023/08/25 01:25:36;;;;;;;4.60;3.50;;;;;;;;;;588863;23;1122;-81
2023/08/25 01:26:12;;;;;;;4.43;3.47;;;;;;;;;;590595;23;1086;-80
2023/08/25 01:26:29;;;;;;;7.43;3.60;;;;;;;;;;588893;23;1135;-80
2023/08/25 01:26:45;;;;;;;6.87;3.70;;;;;;;;;;589503;23;822;-80
2023/08/25 01:27:01;;;;;;;7.60;3.70;;;;;;;;;;587582;23;1128;-80
2023/08/25 01:27:17;;;;;;;7.82;3.80;;;;;;;;;;589221;23;1128;-80
2023/08/25 01:27:33;;;;;;;6.57;3.60;;;;;;;;;;585198;23;1108;-80
2023/08/25 01:27:50;;;;;;;6.38;3.47;;;;;;;;;;587081;23;1278;-80
2023/08/25 01:28:06;;;;;;;4.97;3.35;;;;;;;;;;587608;23;1008;-84
2023/08/25 01:28:22;;;;;;;4.43;3.30;;;;;;;;;;585315;23;1029;-84
2023/08/25 01:28:41;;;;;;;6.22;3.63;;;;;;;;;;590374;23;1012;-84
2023/08/25 01:28:56;;;;;;;6.90;3.70;;;;;;;;;;587969;23;1174;-83
2023/08/25 01:29:12;;;;;;;6.10;3.70;;;;;;;;;;586397;23;1035;-83
2023/08/25 01:29:27;;;;;;;6.07;3.83;;;;;;;;;;588394;23;1251;-84
2023/08/25 01:29:43;;;;;;;6.33;3.60;;;;;;;;;;591076;23;980;-83
2023/08/25 01:29:59;;;;;;;6.78;3.38;;;;;;;;;;592987;23;1111;-84
2023/08/25 01:30:14;;;;;;;6.00;3.38;;;;;;;;;;589815;23;1193;-82
2023/08/25 01:30:35;;;;;;;4.57;3.40;;;;;;;;;;591340;23;1153;-82
2023/08/25 01:31:11;;;;;;;4.72;3.50;;;;;;;;;;586714;23;1153;-80
2023/08/25 01:31:26;;;;;;;4.93;3.47;;;;;;;;;;584933;23;1309;-82
2023/08/25 01:31:41;;;;;;;5.90;3.77;;;;;;;;;;587019;23;1121;-82
2023/08/25 01:31:57;;;;;;;5.13;3.70;;;;;;;;;;587248;23;1040;-81
2023/08/25 01:32:12;;;;;;;5.28;3.40;;;;;;;;;;587355;23;1161;-82
2023/08/25 01:32:28;;;;;;;4.80;3.40;;;;;;;;;;590530;23;1199;-82
2023/08/25 01:32:43;;;;;;;4.75;3.50;;;;;;;;;;586109;23;1134;-82
2023/08/25 01:32:59;;;;;;;6.33;3.77;;;;;;;;;;586492;23;1166;-80
2023/08/25 01:33:16;;;;;;;6.18;3.65;;;;;;;;;;583803;23;1137;-82
2023/08/25 01:33:32;;;;;;;5.55;3.40;;;;;;;;;;583610;23;1095;-81
2023/08/25 01:33:49;;;;;;;6.78;3.47;;;;;;;;;;583317;23;1008;-82
2023/08/25 01:34:04;;;;;;;7.30;3.42;;;;;;;;;;583947;23;1299;-83
2023/08/25 01:34:20;;;;;;;6.35;3.40;;;;;;;;;;588390;23;1055;-82
2023/08/25 01:34:36;;;;;;;6.40;3.57;;;;;;;;;;584234;23;1122;-82
2023/08/25 01:34:52;;;;;;;6.38;3.90;;;;;;;;;;586245;23;1047;-82
2023/08/25 01:35:08;;;;;;;6.40;3.80;;;;;;;;;;585376;23;1086;-82
2023/08/25 01:35:48;;;;;;;6.93;3.75;;;;;;;;;;582486;23;1122;-82
2023/08/25 01:36:23;;;;;;;5.35;3.85;;;;;;;;;;581659;23;1118;-82
2023/08/25 01:36:49;;;;;;;5.73;3.60;;;;;;;;;;588182;23;1272;-82
2023/08/25 01:37:16;;;;;;;5.32;3.70;;;;;;;;;;590766;23;1166;-82
2023/08/25 01:37:37;;;;;;;5.20;3.70;;;;;;;;;;592842;23;1180;-80
2023/08/25 01:38:16;;;;;;;5.13;3.67;;;;;;;;;;590165;23;1121;-82
2023/08/25 01:38:55;;;;;;;5.75;3.58;;;;;;;;;;585294;23;1127;-82
2023/08/25 01:39:15;;;;;;;5.30;3.40;;;;;;;;;;588181;23;1245;-81
2023/08/25 01:39:33;;;;;;;5.10;3.50;;;;;;;;;;589326;23;1060;-82
2023/08/25 01:39:53;;;;;;;4.30;3.33;;;;;;;;;;590726;23;999;-83
2023/08/25 01:40:17;;;;;;;4.35;3.28;;;;;;;;;;590969;23;1060;-82
2023/08/25 01:40:47;;;;;;;4.53;3.38;;;;;;;;;;592173;23;1085;-82
2023/08/25 01:41:20;;;;;;;5.65;3.60;;;;;;;;;;590818;23;1917;-82
2023/08/25 01:41:41;;;;;;;6.28;3.75;;;;;;;;;;588637;23;1107;-83
2023/08/25 01:42:03;;;;;;;5.22;3.70;;;;;;;;;;584447;23;977;-82
2023/08/25 01:42:22;;;;;;;5.30;3.65;;;;;;;;;;586013;23;1006;-83
2023/08/25 01:42:41;;;;;;;4.75;3.28;;;;;;;;;;588935;23;1047;-83
2023/08/25 01:42:58;;;;;;;4.03;2.97;;;;;;;;;;589142;23;1055;-82
2023/08/25 01:43:18;;;;;;;4.15;3.13;;;;;;;;;;592891;23;1045;-82
2023/08/25 01:43:55;;;;;;;4.45;3.20;;;;;;;;;;589742;23;1226;-81
2023/08/25 01:44:21;;;;;;;4.45;2.90;;;;;;;;;;591883;23;1090;-82
2023/08/25 01:44:41;;;;;;;4.00;2.97;;;;;;;;;;590942;23;1110;-82
2023/08/25 01:44:57;;;;;;;4.10;3.13;;;;;;;;;;585594;23;1001;-81
2023/08/25 01:45:15;;;;;;;5.80;3.20;;;;;;;;;;587284;23;1043;-83
2023/08/25 01:45:30;;;;;;;5.88;3.10;;;;;;;;;;589501;23;1173;-82
2023/08/25 01:45:48;;;;;;;4.95;3.50;;;;;;;;;;587291;23;960;-81
2023/08/25 01:46:08;;;;;;;5.53;3.50;;;;;;;;;;585802;23;1237;-82
2023/08/25 01:47:04;;;;;;;6.13;3.47;;;;;;;;;;584845;23;1184;-81
2023/08/25 01:47:22;;;;;;;6.15;3.22;;;;;;;;;;585588;23;1230;-82
2023/08/25 01:47:40;;;;;;;4.95;3.58;;;;;;;;;;589269;23;1219;-82
2023/08/25 01:47:57;;;;;;;4.97;3.47;;;;;;;;;;590508;23;1010;-83
2023/08/25 01:48:15;;;;;;;5.45;3.47;;;;;;;;;;590702;23;1107;-81
2023/08/25 01:48:32;;;;;;;5.50;3.67;;;;;;;;;;590421;23;1019;-82
2023/08/25 01:48:51;;;;;;;6.03;3.60;;;;;;;;;;586984;23;1142;-82
2023/08/25 01:49:07;;;;;;;5.63;3.53;;;;;;;;;;587217;23;777;-81
2023/08/25 01:49:24;;;;;;;6.78;3.53;;;;;;;;;;588697;23;1014;-81
2023/08/25 01:49:40;;;;;;;6.50;3.55;;;;;;;;;;588870;23;1268;-80
2023/08/25 01:49:57;;;;;;;5.72;3.67;;;;;;;;;;587250;23;1043;-81
2023/08/25 01:50:13;;;;;;;5.65;3.63;;;;;;;;;;591975;23;1182;-81
2023/08/25 01:50:49;;;;;;;4.80;3.38;;;;;;;;;;587418;23;1008;-80
2023/08/25 01:51:05;;;;;;;3.97;3.10;;;;;;;;;;590078;23;1067;-80
2023/08/25 01:51:20;;;;;;;4.75;3.30;;;;;;;;;;591810;23;988;-80
2023/08/25 01:51:36;;;;;;;5.13;3.55;;;;;;;;;;594401;23;1090;-81
2023/08/25 01:51:52;;;;;;;4.90;3.33;;;;;;;;;;590673;23;1126;-81
2023/08/25 01:52:12;;;;;;;5.85;3.47;;;;;;;;;;591917;23;1260;-82
2023/08/25 01:52:28;;;;;;;7.43;3.90;;;;;;;;;;591072;23;1131;-80
2023/08/25 01:52:44;;;;;;;6.90;3.70;;;;;;;;;;588087;23;1102;-82
2023/08/25 01:52:59;;;;;;;5.90;3.30;;;;;;;;;;590848;23;1062;-81
2023/08/25 01:53:15;;;;;;;4.97;3.30;;;;;;;;;;590286;23;1185;-81
2023/08/25 01:53:54;;;;;;;4.35;3.33;;;;;;;;;;584708;23;1312;-81
2023/08/25 01:54:10;;;;;;;5.32;3.47;;;;;;;;;;585436;23;1293;-82
2023/08/25 01:54:48;;;;;;;6.55;3.53;;;;;;;;;;585269;23;1164;-81
2023/08/25 01:55:04;;;;;;;5.18;3.50;;;;;;;;;;588456;23;1018;-81
2023/08/25 01:55:19;;;;;;;5.93;3.38;;;;;;;;;;587652;23;1082;-81
2023/08/25 01:55:35;;;;;;;6.50;3.50;;;;;;;;;;585116;23;981;-81
2023/08/25 01:55:50;;;;;;;5.30;3.50;;;;;;;;;;581082;23;1172;-81
2023/08/25 01:56:06;;;;;;;4.60;3.30;;;;;;;;;;578759;23;1008;-82